Time;durP1;ratioP1;P1;durP2;ratioP2;P2;SDS_P1;SDS_P2;PMS_P1;PMS_P2;Temp;Humidity;BMP_temperature;BMP_pressure;BME280_temperature;BME280_humidity;BME280_pressure;Samples;Min_cycle;Max_cycle;Signal;HPM_P1;HPM_P2
2022/03/04 00:00:43;;;;;;;56.07;28.40;;;;;;;0.50;71.26;101031.89;1705809;84;21028;-77
2022/03/04 00:03:11;;;;;;;54.70;28.67;;;;;;;0.52;71.36;101035.33;1705700;84;21140;-76
2022/03/04 00:05:39;;;;;;;54.70;27.07;;;;;;;0.54;71.41;101037.95;1705787;84;21773;-76
2022/03/04 00:08:07;;;;;;;55.77;28.90;;;;;;;0.57;71.43;101032.40;1706037;84;21028;-77
2022/03/04 00:10:36;;;;;;;52.57;27.30;;;;;;;0.56;71.42;101042.72;1705996;84;21579;-77
2022/03/04 00:13:03;;;;;;;59.30;28.80;;;;;;;0.57;71.50;101048.31;1705910;84;21513;-77
2022/03/04 00:15:30;;;;;;;60.47;30.00;;;;;;;0.54;71.44;101043.11;1706110;84;21035;-77
2022/03/04 00:17:58;;;;;;;59.77;29.23;;;;;;;0.53;71.50;101036.23;1706010;84;21024;-77
2022/03/04 00:20:25;;;;;;;56.33;29.50;;;;;;;0.51;71.52;101040.48;1705996;84;21060;-77
2022/03/04 00:22:52;;;;;;;60.07;30.33;;;;;;;0.48;71.69;101041.73;1706156;84;21080;-77
2022/03/04 00:25:21;;;;;;;55.17;28.37;;;;;;;0.44;71.77;101034.36;1706217;84;21489;-76
2022/03/04 00:27:49;;;;;;;57.73;28.37;;;;;;;0.43;71.99;101038.66;1705960;84;21152;-76
2022/03/04 00:30:16;;;;;;;60.97;29.47;;;;;;;0.40;71.88;101037.32;1706148;84;21057;-76
2022/03/04 00:32:43;;;;;;;57.90;28.50;;;;;;;0.36;72.03;101032.09;1705938;84;21036;-77
2022/03/04 00:35:10;;;;;;;54.00;27.77;;;;;;;0.36;72.29;101032.98;1706279;84;21024;-76
2022/03/04 00:37:37;;;;;;;55.77;28.10;;;;;;;0.37;72.56;101032.12;1705867;84;21499;-77
2022/03/04 00:40:06;;;;;;;53.73;28.87;;;;;;;0.41;72.42;101036.89;1706132;84;22241;-76
2022/03/04 00:42:34;;;;;;;52.70;27.37;;;;;;;0.40;72.51;101030.02;1705872;84;20917;-78
2022/03/04 00:45:01;;;;;;;54.33;26.63;;;;;;;0.42;72.70;101026.61;1706110;84;21056;-77
2022/03/04 00:47:28;;;;;;;58.57;29.13;;;;;;;0.43;72.52;101024.89;1705970;84;21020;-77
2022/03/04 00:49:55;;;;;;;56.37;27.43;;;;;;;0.39;72.32;101014.11;1706172;84;21471;-76
2022/03/04 00:52:23;;;;;;;55.53;29.60;;;;;;;0.36;72.42;101023.06;1705921;84;21151;-76
2022/03/04 00:54:49;;;;;;;57.37;29.50;;;;;;;0.36;72.69;101012.35;1705926;84;21471;-76
2022/03/04 00:57:16;;;;;;;50.87;26.87;;;;;;;0.36;72.61;101023.95;1706049;84;21024;-77
2022/03/04 00:59:43;;;;;;;60.33;28.50;;;;;;;0.33;72.62;101017.44;1705938;84;22044;-76
2022/03/04 01:02:10;;;;;;;53.80;27.80;;;;;;;0.33;72.71;101012.70;1706094;84;21037;-76
2022/03/04 01:04:38;;;;;;;54.50;27.63;;;;;;;0.33;73.00;101026.45;1706052;84;21811;-78
2022/03/04 01:07:05;;;;;;;54.53;27.50;;;;;;;0.37;73.13;101022.23;1706014;84;21001;-77
2022/03/04 01:09:32;;;;;;;51.93;27.60;;;;;;;0.40;73.05;101023.56;1705776;84;21089;-77
2022/03/04 01:11:59;;;;;;;54.97;27.93;;;;;;;0.41;73.06;101022.70;1706171;84;21033;-76
2022/03/04 01:14:26;;;;;;;55.43;28.27;;;;;;;0.42;73.05;101020.59;1705850;84;21087;-78
2022/03/04 01:16:53;;;;;;;55.33;26.70;;;;;;;0.41;73.03;101012.39;1706153;84;21123;-78
2022/03/04 01:19:21;;;;;;;52.57;26.70;;;;;;;0.42;73.17;101020.17;1705841;84;21072;-77
2022/03/04 01:21:47;;;;;;;55.80;28.00;;;;;;;0.42;73.13;101017.59;1706132;84;21486;-76
2022/03/04 01:24:14;;;;;;;57.67;28.40;;;;;;;0.46;73.28;101018.92;1705808;84;21021;-76
2022/03/04 01:26:42;;;;;;;53.47;27.87;;;;;;;0.48;73.35;101019.39;1706057;84;21577;-78
2022/03/04 01:29:09;;;;;;;55.10;29.10;;;;;;;0.52;73.36;101016.42;1705836;84;21135;-76
2022/03/04 01:31:36;;;;;;;55.53;28.50;;;;;;;0.52;73.26;101020.28;1705822;84;21028;-77
2022/03/04 01:34:03;;;;;;;56.50;28.67;;;;;;;0.51;73.20;101010.39;1705903;84;20989;-77
2022/03/04 01:36:33;;;;;;;53.90;28.30;;;;;;;0.52;73.34;101012.55;1705841;84;21020;-77
2022/03/04 01:39:00;;;;;;;50.63;26.50;;;;;;;0.52;73.48;101016.42;1705895;84;21001;-77
2022/03/04 01:41:27;;;;;;;57.10;27.60;;;;;;;0.55;73.41;101014.73;1705807;84;21463;-76
2022/03/04 01:43:54;;;;;;;51.80;27.60;;;;;;;0.57;73.44;101009.61;1705863;84;21036;-76
2022/03/04 01:46:29;;;;;;;51.23;28.10;;;;;;;0.59;73.52;101012.66;1705927;84;21041;-76
2022/03/04 01:48:57;;;;;;;60.50;28.00;;;;;;;0.57;73.42;101011.77;1705971;84;21032;-76
2022/03/04 01:51:24;;;;;;;51.80;25.70;;;;;;;0.57;73.48;101009.61;1705912;84;21084;-77
2022/03/04 01:53:52;;;;;;;56.17;28.40;;;;;;;0.57;73.55;101009.19;1705876;84;21379;-76
2022/03/04 01:56:19;;;;;;;55.63;27.93;;;;;;;0.56;73.51;101010.04;1705872;84;21016;-77
2022/03/04 01:58:46;;;;;;;55.53;28.20;;;;;;;0.56;73.32;101015.63;1705886;84;20925;-77
2022/03/04 02:01:13;;;;;;;55.10;29.13;;;;;;;0.54;73.20;101013.44;1706179;84;21480;-77
2022/03/04 02:03:40;;;;;;;55.20;27.47;;;;;;;0.49;73.21;101006.06;1705970;84;21087;-77
2022/03/04 02:06:08;;;;;;;57.23;28.80;;;;;;;0.47;73.33;101006.45;1706105;84;22061;-77
2022/03/04 02:08:35;;;;;;;55.97;28.23;;;;;;;0.47;73.44;101011.18;1705859;84;20997;-77
2022/03/04 02:11:02;;;;;;;57.17;27.63;;;;;;;0.44;73.44;101000.44;1706065;84;21024;-77
2022/03/04 02:13:29;;;;;;;56.50;27.77;;;;;;;0.43;73.43;101001.25;1705758;84;21032;-77
2022/03/04 02:15:56;;;;;;;56.90;27.70;;;;;;;0.44;73.67;101007.27;1706168;84;21069;-78
2022/03/04 02:18:23;;;;;;;51.93;27.87;;;;;;;0.46;73.90;101003.02;1705869;84;21971;-77
2022/03/04 02:20:53;;;;;;;55.07;27.20;;;;;;;0.48;73.83;101004.34;1706045;84;21481;-76
2022/03/04 02:23:21;;;;;;;53.00;28.10;;;;;;;0.49;73.92;100999.61;1706156;84;21016;-78
2022/03/04 02:25:51;;;;;;;54.20;28.20;;;;;;;0.50;73.93;101000.94;1706123;84;21322;-77
2022/03/04 02:28:20;;;;;;;59.95;29.48;;;;;;;0.52;74.07;101006.96;1705983;84;21021;-77
2022/03/04 02:30:48;;;;;;;55.83;28.60;;;;;;;0.57;74.15;101003.16;1706005;84;21128;-76
2022/03/04 02:33:15;;;;;;;59.47;28.63;;;;;;;0.60;74.17;101006.64;1705799;84;21024;-77
2022/03/04 02:35:42;;;;;;;55.43;28.50;;;;;;;0.64;74.17;101009.72;1705758;84;21284;-77
2022/03/04 02:38:10;;;;;;;53.67;28.47;;;;;;;0.67;74.21;101005.03;1705663;84;21076;-77
2022/03/04 02:40:37;;;;;;;57.07;28.73;;;;;;;0.67;74.06;101005.03;1705935;84;21538;-77
2022/03/04 02:43:06;;;;;;;53.93;27.17;;;;;;;0.71;74.14;101011.95;1705871;84;21133;-77
2022/03/04 02:45:33;;;;;;;50.43;26.80;;;;;;;0.74;73.98;101010.69;1705809;84;21030;-77
2022/03/04 02:48:00;;;;;;;51.70;26.60;;;;;;;0.72;74.01;101007.25;1705857;84;21075;-76
2022/03/04 02:50:27;;;;;;;47.10;26.00;;;;;;;0.75;74.06;101017.61;1705719;84;20997;-77
2022/03/04 02:52:55;;;;;;;52.97;27.93;;;;;;;0.74;74.06;101013.70;1705884;84;21494;-76
2022/03/04 02:55:23;;;;;;;53.13;26.97;;;;;;;0.73;74.08;101011.98;1706194;84;21080;-76
2022/03/04 02:57:50;;;;;;;53.80;27.57;;;;;;;0.74;74.09;101013.70;1705820;84;21016;-78
2022/03/04 03:00:17;;;;;;;52.97;26.73;;;;;;;0.71;74.15;101014.53;1705799;84;20990;-76
2022/03/04 03:02:45;;;;;;;51.63;26.87;;;;;;;0.72;74.25;101015.39;1705915;84;21498;-77
2022/03/04 03:05:12;;;;;;;53.20;27.63;;;;;;;0.73;74.26;101014.56;1705886;84;21016;-78
2022/03/04 03:07:40;;;;;;;53.40;27.20;;;;;;;0.74;74.20;101013.70;1705810;84;21959;-77
2022/03/04 03:10:11;;;;;;;58.37;28.90;;;;;;;0.73;74.23;101013.27;1705806;84;21029;-77
2022/03/04 03:12:40;;;;;;;56.30;27.42;;;;;;;0.74;74.29;101017.14;1706157;84;21360;-77
2022/03/04 03:15:09;;;;;;;55.07;27.17;;;;;;;0.74;74.38;101018.44;1705991;84;21497;-76
2022/03/04 03:17:37;;;;;;;58.93;27.60;;;;;;;0.74;74.38;101010.69;1705961;84;21028;-77
2022/03/04 03:20:07;;;;;;;56.47;27.90;;;;;;;0.76;74.53;101013.30;1706180;84;21224;-77
2022/03/04 03:22:34;;;;;;;55.80;28.12;;;;;;;0.75;74.42;101016.71;1706045;84;21043;-77
2022/03/04 03:25:02;;;;;;;56.47;27.40;;;;;;;0.77;74.50;101022.34;1705748;84;20993;-77
2022/03/04 03:27:29;;;;;;;56.20;28.63;;;;;;;0.78;74.48;101019.36;1706140;84;21029;-76
2022/03/04 03:29:56;;;;;;;55.67;27.53;;;;;;;0.75;74.44;101015.03;1706022;84;21076;-76
2022/03/04 03:32:24;;;;;;;55.73;27.67;;;;;;;0.75;74.49;101012.84;1705886;84;21771;-76
2022/03/04 03:34:51;;;;;;;60.93;29.63;;;;;;;0.73;74.46;101014.56;1706042;84;21017;-77
2022/03/04 03:37:18;;;;;;;60.30;29.63;;;;;;;0.73;74.60;101018.43;1705970;83;21091;-78
2022/03/04 03:39:45;;;;;;;61.43;31.17;;;;;;;0.74;74.64;101014.56;1722727;83;21016;-77
2022/03/04 03:42:12;;;;;;;56.20;28.97;;;;;;;0.75;74.58;101020.58;1722730;83;21437;-77
2022/03/04 03:44:39;;;;;;;60.60;29.70;;;;;;;0.76;74.71;101015.89;1722570;83;21113;-77
2022/03/04 03:47:09;;;;;;;65.60;30.40;;;;;;;0.78;74.71;101014.20;1722545;83;21047;-76
2022/03/04 03:49:38;;;;;;;62.60;30.83;;;;;;;0.77;74.64;101012.02;1722779;83;21024;-77
2022/03/04 03:52:06;;;;;;;66.47;30.77;;;;;;;0.78;74.73;101011.62;1722711;83;21085;-76
2022/03/04 03:54:34;;;;;;;61.63;31.60;;;;;;;0.78;74.83;101018.07;1722610;83;21047;-78
2022/03/04 03:57:01;;;;;;;59.30;29.97;;;;;;;0.80;74.91;101012.48;1722651;83;21191;-77
2022/03/04 03:59:28;;;;;;;64.93;32.10;;;;;;;0.82;74.98;101022.41;1722655;83;21028;-76
2022/03/04 04:01:55;;;;;;;63.00;31.83;;;;;;;0.86;75.01;101019.04;1722589;83;21048;-77
2022/03/04 04:04:22;;;;;;;67.40;31.20;;;;;;;0.87;74.93;101028.50;1722726;83;21016;-76
2022/03/04 04:06:49;;;;;;;62.50;29.83;;;;;;;0.85;74.94;101032.77;1722629;83;21298;-76
2022/03/04 04:09:17;;;;;;;56.73;30.53;;;;;;;0.85;74.96;101030.19;1722857;83;21161;-77
2022/03/04 04:11:44;;;;;;;65.53;32.57;;;;;;;0.84;74.99;101028.47;1722579;83;21027;-78
2022/03/04 04:14:11;;;;;;;68.07;31.20;;;;;;;0.86;74.89;101029.36;1722903;83;21028;-76
2022/03/04 04:16:38;;;;;;;65.67;31.07;;;;;;;0.85;74.99;101031.05;1722754;83;21492;-76
2022/03/04 04:19:05;;;;;;;74.47;43.07;;;;;;;0.85;75.03;101032.77;1723011;83;21388;-77
2022/03/04 04:21:34;;;;;;;73.43;37.77;;;;;;;0.85;75.04;101035.35;1722670;83;21772;-77
2022/03/04 04:24:01;;;;;;;74.10;38.63;;;;;;;0.86;75.11;101038.39;1722872;83;21015;-77
2022/03/04 04:26:28;;;;;;;69.17;34.53;;;;;;;0.84;75.09;101036.20;1722680;83;21031;-77
2022/03/04 04:28:55;;;;;;;94.47;57.10;;;;;;;0.83;75.16;101028.89;1723020;83;21011;-77
2022/03/04 04:31:22;;;;;;;68.00;33.53;;;;;;;0.86;75.17;101030.66;1722640;83;21343;-76
2022/03/04 04:33:51;;;;;;;99.57;61.17;;;;;;;0.81;75.01;101031.88;1694056;83;21048;-76
2022/03/04 04:36:19;;;;;;;68.43;36.30;;;;;;;0.78;75.12;101028.39;1722834;83;21027;-77
2022/03/04 04:38:46;;;;;;;65.17;34.00;;;;;;;0.74;75.13;101036.50;1722733;83;21015;-76
2022/03/04 04:41:14;;;;;;;69.53;33.10;;;;;;;0.73;75.23;101026.17;1722755;83;21011;-77
2022/03/04 04:43:41;;;;;;;66.00;33.57;;;;;;;0.71;75.19;101027.43;1722894;83;21285;-77
2022/03/04 04:46:08;;;;;;;59.43;32.60;;;;;;;0.71;75.36;101027.43;1722649;83;21923;-77
2022/03/04 04:48:35;;;;;;;66.33;32.37;;;;;;;0.68;75.39;101026.10;1722792;83;21016;-76
2022/03/04 04:51:02;;;;;;;65.93;33.47;;;;;;;0.64;75.31;101021.33;1722668;83;21016;-77
2022/03/04 04:53:30;;;;;;;65.10;31.87;;;;;;;0.61;75.39;101024.27;1722861;83;22055;-77
2022/03/04 04:55:58;;;;;;;72.13;34.70;;;;;;;0.57;75.53;101023.37;1722652;83;21033;-77
2022/03/04 04:58:27;;;;;;;72.80;35.03;;;;;;;0.57;75.65;101022.08;1722796;83;21131;-76
2022/03/04 05:00:54;;;;;;;67.13;31.93;;;;;;;0.58;75.67;101019.97;1722705;83;21272;-76
2022/03/04 05:03:26;;;;;;;70.47;33.73;;;;;;;0.56;75.64;101024.66;1722796;83;21388;-76
2022/03/04 05:05:56;;;;;;;66.43;32.93;;;;;;;0.53;75.70;101027.20;1722741;83;21027;-77
2022/03/04 05:08:27;;;;;;;68.53;33.33;;;;;;;0.53;75.90;101021.61;1722764;83;21000;-76
2022/03/04 05:10:54;;;;;;;;;;;;;;;0.56;75.92;101028.53;1725445;83;21147;-76
2022/03/04 05:13:21;;;;;;;70.30;32.23;;;;;;;0.56;76.05;101026.81;1700689;84;20122;-77
2022/03/04 05:15:48;;;;;;;68.63;33.23;;;;;;;0.53;75.94;101025.91;1722810;83;21019;-78
2022/03/04 05:18:15;;;;;;;67.73;32.47;;;;;;;0.53;76.06;101023.33;1723060;83;21047;-77
2022/03/04 05:20:43;;;;;;;67.37;35.43;;;;;;;0.54;76.05;101027.63;1722707;83;21023;-76
2022/03/04 05:23:10;;;;;;;67.53;36.13;;;;;;;0.52;76.09;101030.17;1723039;83;21074;-77
2022/03/04 05:25:38;;;;;;;74.73;36.07;;;;;;;0.48;76.06;101029.70;1722776;83;20945;-77
2022/03/04 05:28:05;;;;;;;72.83;37.33;;;;;;;0.49;76.23;101036.58;1722938;83;20992;-77
2022/03/04 05:30:32;;;;;;;72.70;35.17;;;;;;;0.47;76.22;101029.23;1722700;83;21019;-77
2022/03/04 05:32:59;;;;;;;69.90;34.33;;;;;;;0.48;76.28;101036.15;1722980;83;21536;-76
2022/03/04 05:35:26;;;;;;;65.47;33.33;;;;;;;0.53;76.46;101033.22;1722795;83;21211;-78
2022/03/04 05:37:53;;;;;;;71.50;34.53;;;;;;;0.53;76.38;101034.51;1722927;83;20980;-77
2022/03/04 05:40:21;;;;;;;75.80;38.00;;;;;;;0.55;76.41;101041.82;1722785;83;21466;-76
2022/03/04 05:42:48;;;;;;;68.87;35.13;;;;;;;0.55;76.40;101037.95;1723049;83;21031;-77
2022/03/04 05:45:15;;;;;;;70.53;35.23;;;;;;;0.55;76.54;101039.24;1722831;83;21008;-77
2022/03/04 05:47:42;;;;;;;74.10;37.83;;;;;;;0.56;76.44;101041.00;1722854;83;21588;-78
2022/03/04 05:50:10;;;;;;;75.70;36.33;;;;;;;0.56;76.49;101042.72;1722833;83;21008;-76
2022/03/04 05:52:38;;;;;;;68.40;35.27;;;;;;;0.56;76.55;101045.30;1722791;83;33385;-77
2022/03/04 05:55:07;;;;;;;67.67;34.53;;;;;;;0.55;76.57;101045.69;1722709;83;21048;-76
2022/03/04 05:57:34;;;;;;;65.53;33.97;;;;;;;0.56;76.63;101056.48;1722800;83;21294;-76
2022/03/04 06:00:02;;;;;;;81.53;38.13;;;;;;;0.57;76.69;101058.20;1722766;83;21139;-76
2022/03/04 06:02:31;;;;;;;110.52;45.83;;;;;;;0.59;76.78;101053.94;1722873;83;20984;-76
2022/03/04 06:04:59;;;;;;;93.37;42.67;;;;;;;0.60;76.69;101062.11;1722758;83;21541;-77
2022/03/04 06:07:28;;;;;;;76.27;41.70;;;;;;;0.59;76.79;101059.09;1722616;83;21094;-76
2022/03/04 06:09:55;;;;;;;95.70;43.40;;;;;;;0.62;76.89;101063.00;1722737;83;21060;-77
2022/03/04 06:12:22;;;;;;;67.73;34.27;;;;;;;0.67;76.87;101063.08;1722760;83;21101;-78
2022/03/04 06:14:49;;;;;;;75.80;35.60;;;;;;;0.70;76.85;101070.00;1722535;83;21059;-78
2022/03/04 06:17:17;;;;;;;75.30;36.83;;;;;;;0.69;76.83;101069.53;1723074;83;21516;-77
2022/03/04 06:19:44;;;;;;;67.53;33.97;;;;;;;0.70;76.86;101076.45;1722654;83;21020;-76
2022/03/04 06:22:11;;;;;;;125.23;50.23;;;;;;;0.73;76.91;101073.91;1722958;83;20988;-76
2022/03/04 06:24:38;;;;;;;314.20;122.33;;;;;;;0.77;76.91;101082.13;1722706;83;21144;-76
2022/03/04 06:27:05;;;;;;;444.47;208.20;;;;;;;0.80;76.88;101083.45;1722833;83;20984;-76
2022/03/04 06:29:33;;;;;;;216.23;98.87;;;;;;;0.83;76.90;101083.48;1722726;83;21000;-77
2022/03/04 06:32:00;;;;;;;118.73;53.50;;;;;;;0.85;76.93;101090.41;1722904;83;21595;-77
2022/03/04 06:34:27;;;;;;;246.73;88.90;;;;;;;0.86;76.89;101090.01;1722630;83;21019;-77
2022/03/04 06:36:54;;;;;;;84.90;38.20;;;;;;;0.87;76.93;101096.47;1722723;83;21960;-78
2022/03/04 06:39:21;;;;;;;75.63;36.03;;;;;;;0.91;76.94;101096.08;1722707;83;21023;-77
2022/03/04 06:41:53;;;;;;;108.07;45.03;;;;;;;0.95;76.93;101094.42;1722619;83;21596;-78
2022/03/04 06:44:16;;;;;;;91.00;41.83;;;;;;;0.98;76.97;101099.62;1721722;83;21012;-77
2022/03/04 06:46:44;;;;;;;65.00;33.90;;;;;;;0.99;76.89;101098.77;1722792;83;20980;-77
2022/03/04 06:49:12;;;;;;;63.47;32.90;;;;;;;1.00;76.94;101101.38;1723006;83;21083;-77
2022/03/04 06:51:40;;;;;;;64.67;31.67;;;;;;;1.06;76.98;101098.02;1722579;83;20948;-77
2022/03/04 06:54:07;;;;;;;67.93;32.03;;;;;;;1.09;76.87;101105.36;1722867;83;21437;-76
2022/03/04 06:56:35;;;;;;;62.37;30.57;;;;;;;1.11;76.86;101103.67;1722655;83;21031;-78
2022/03/04 06:59:02;;;;;;;216.80;105.47;;;;;;;1.12;76.80;101113.58;1722772;83;21031;-77
2022/03/04 07:01:29;;;;;;;79.13;40.70;;;;;;;1.12;76.81;101114.87;1722499;83;21123;-83
2022/03/04 07:03:56;;;;;;;100.20;45.17;;;;;;;1.10;76.86;101117.41;1722933;83;21071;-77
2022/03/04 07:06:23;;;;;;;72.93;35.27;;;;;;;1.11;76.85;101120.89;1720043;83;21415;-77
2022/03/04 07:08:50;;;;;;;58.77;31.37;;;;;;;1.13;76.91;101123.47;1714940;83;21032;-77
2022/03/04 07:11:17;;;;;;;57.17;30.87;;;;;;;1.13;76.91;101130.79;1697889;83;21036;-77
2022/03/04 07:13:44;;;;;;;82.57;38.67;;;;;;;1.11;76.54;101120.46;1697946;83;21170;-77
2022/03/04 07:16:11;;;;;;;110.10;51.13;;;;;;;1.11;76.83;101126.05;1693525;84;21006;-77
2022/03/04 07:18:38;;;;;;;124.80;56.27;;;;;;;1.14;76.95;101126.09;1697760;83;21529;-77
2022/03/04 07:21:05;;;;;;;170.47;91.53;;;;;;;1.15;76.98;101130.39;1705607;83;21036;-77
2022/03/04 07:23:32;;;;;;;113.10;58.33;;;;;;;1.16;76.98;101128.67;1697943;83;21072;-77
2022/03/04 07:25:59;;;;;;;105.83;48.20;;;;;;;1.16;77.10;101126.95;1701580;83;21935;-76
2022/03/04 07:28:26;;;;;;;115.17;53.27;;;;;;;1.21;77.14;101127.02;1701707;83;21023;-78
2022/03/04 07:30:53;;;;;;;65.20;32.10;;;;;;;1.27;77.29;101125.37;1695428;83;21002;-78
2022/03/04 07:33:20;;;;;;;63.13;29.83;;;;;;;1.34;77.17;101129.78;1697810;83;21051;-77
2022/03/04 07:35:47;;;;;;;54.67;30.17;;;;;;;1.42;77.26;101129.88;1701725;83;22049;-77
2022/03/04 07:38:15;;;;;;;67.83;32.03;;;;;;;1.46;76.99;101130.34;1711476;83;21160;-77
2022/03/04 07:40:42;;;;;;;75.43;37.40;;;;;;;1.50;76.97;101133.86;1688066;83;21000;-77
2022/03/04 07:43:09;;;;;;;75.20;34.80;;;;;;;1.54;77.03;101135.61;1659854;86;21497;-77
2022/03/04 07:45:36;;;;;;;68.13;32.23;;;;;;;1.60;77.01;101135.67;1693739;84;21485;-77
2022/03/04 07:48:04;;;;;;;78.63;35.13;;;;;;;1.65;77.02;101131.86;1693692;84;21076;-77
2022/03/04 07:50:31;;;;;;;51.40;26.90;;;;;;;1.70;76.95;101139.25;1659995;86;21156;-78
2022/03/04 07:52:58;;;;;;;113.27;52.13;;;;;;;1.77;76.99;101133.27;1693917;84;21019;-77
2022/03/04 07:55:26;;;;;;;103.83;47.87;;;;;;;1.84;76.86;101138.10;1654762;86;21063;-76
2022/03/04 07:57:56;;;;;;;83.53;41.10;;;;;;;1.89;76.80;101140.31;1683040;85;20888;-76
2022/03/04 08:00:26;;;;;;;156.70;74.03;;;;;;;1.95;76.90;101141.23;1654736;86;21008;-77
2022/03/04 08:02:54;;;;;;;280.65;109.27;;;;;;;2.05;76.97;101153.84;1701268;84;21257;-76
2022/03/04 08:05:22;;;;;;;201.70;77.37;;;;;;;2.11;76.76;101153.03;1688409;85;21012;-77
2022/03/04 08:07:49;;;;;;;90.43;42.77;;;;;;;2.17;76.74;101145.33;1700669;84;21017;-84
2022/03/04 08:10:16;;;;;;;151.77;64.23;;;;;;;2.23;76.62;101152.70;1688425;85;21557;-77
2022/03/04 08:12:44;;;;;;;88.57;43.60;;;;;;;2.29;76.55;101153.61;1700793;84;21046;-76
2022/03/04 08:15:12;;;;;;;89.60;42.83;;;;;;;2.34;76.58;101158.41;1688394;85;21063;-76
2022/03/04 08:17:40;;;;;;;51.43;26.97;;;;;;;2.41;76.47;101157.59;1700612;84;21064;-76
2022/03/04 08:20:09;;;;;;;48.70;26.03;;;;;;;2.44;76.34;101159.80;1688328;85;21035;-77
2022/03/04 08:22:36;;;;;;;73.20;34.13;;;;;;;2.53;76.40;101160.30;1700494;84;21524;-77
2022/03/04 08:25:06;;;;;;;68.73;34.07;;;;;;;2.59;76.39;101154.30;1686480;84;21054;-79
2022/03/04 08:27:39;;;;;;;66.62;30.60;;;;;;;2.66;76.31;101158.25;1696560;84;21955;-78
2022/03/04 08:30:09;;;;;;;78.20;36.40;;;;;;;2.71;76.20;101164.73;1701117;84;20986;-78
2022/03/04 08:32:37;;;;;;;52.98;26.70;;;;;;;2.75;76.13;101172.12;1700538;84;21025;-77
2022/03/04 08:35:05;;;;;;;46.37;27.50;;;;;;;2.79;76.03;101166.09;1700050;84;21537;-77
2022/03/04 08:37:32;;;;;;;42.90;24.37;;;;;;;2.80;75.92;101166.52;1688641;85;21523;-76
2022/03/04 08:40:01;;;;;;;54.07;28.30;;;;;;;2.82;75.81;101168.27;1701840;84;21085;-76
2022/03/04 08:42:29;;;;;;;52.67;29.07;;;;;;;2.83;75.79;101171.31;1703163;84;21004;-77
2022/03/04 08:44:56;;;;;;;43.67;23.57;;;;;;;2.85;75.79;101170.88;1691103;84;21039;-76
2022/03/04 08:47:23;;;;;;;40.07;23.50;;;;;;;2.86;75.78;101170.47;1703112;83;21561;-76
2022/03/04 08:49:51;;;;;;;34.73;20.17;;;;;;;2.85;75.69;101176.48;1690900;84;21035;-80
2022/03/04 08:52:18;;;;;;;46.67;24.80;;;;;;;2.86;75.66;101180.39;1687713;84;21604;-79
2022/03/04 08:54:46;;;;;;;49.50;26.83;;;;;;;2.87;75.66;101176.94;1717589;83;21141;-84
2022/03/04 08:57:14;;;;;;;46.73;25.30;;;;;;;2.89;75.61;101180.84;1713220;83;21056;-76
2022/03/04 08:59:41;;;;;;;44.00;24.37;;;;;;;2.91;75.60;101189.50;1696322;83;21109;-81
2022/03/04 09:02:09;;;;;;;45.63;26.57;;;;;;;2.92;75.64;101179.56;1717170;83;21025;-79
2022/03/04 09:04:36;;;;;;;35.27;20.97;;;;;;;2.98;75.74;101190.39;1717598;83;21122;-79
2022/03/04 09:07:06;;;;;;;34.63;20.23;;;;;;;3.02;75.61;101191.73;1717324;83;21018;-78
2022/03/04 09:09:32;;;;;;;32.23;19.10;;;;;;;3.04;75.55;101192.58;1717498;83;21021;-76
2022/03/04 09:11:59;;;;;;;36.23;20.20;;;;;;;3.06;75.49;101188.28;1707889;83;21563;-77
2022/03/04 09:14:26;;;;;;;38.33;19.00;;;;;;;3.08;75.31;101191.77;1717499;83;21000;-78
2022/03/04 09:16:53;;;;;;;32.77;19.27;;;;;;;3.10;75.29;101193.05;1705728;83;21130;-78
2022/03/04 09:19:20;;;;;;;33.20;20.13;;;;;;;3.08;75.18;101190.47;1717452;83;21416;-78
2022/03/04 09:21:47;;;;;;;39.73;21.87;;;;;;;3.09;75.20;101199.95;1717301;83;20982;-79
2022/03/04 09:24:15;;;;;;;33.90;19.23;;;;;;;3.12;75.20;101199.97;1717592;83;21428;-77
2022/03/04 09:26:43;;;;;;;81.17;42.30;;;;;;;3.17;75.26;101196.13;1703777;83;21075;-77
2022/03/04 09:29:10;;;;;;;46.00;26.93;;;;;;;3.26;75.33;101200.06;1688776;85;21165;-81
2022/03/04 09:31:37;;;;;;;32.53;19.57;;;;;;;3.30;75.20;101200.53;1688538;85;20993;-79
2022/03/04 09:34:04;;;;;;;30.53;18.67;;;;;;;3.35;75.16;101201.83;1688750;84;21078;-77
2022/03/04 09:36:31;;;;;;;30.63;18.87;;;;;;;3.37;74.96;101204.45;1688530;85;21001;-77
2022/03/04 09:38:58;;;;;;;30.30;19.23;;;;;;;3.35;74.92;101201.83;1688738;85;21430;-78
2022/03/04 09:41:26;;;;;;;28.97;16.13;;;;;;;3.37;74.93;101204.45;1688442;85;21593;-78
2022/03/04 09:43:56;;;;;;;24.13;14.83;;;;;;;3.43;74.96;101201.88;1688757;84;21046;-80
2022/03/04 09:46:24;;;;;;;25.50;15.80;;;;;;;3.50;74.93;101199.33;1688593;84;21009;-79
2022/03/04 09:48:52;;;;;;;29.77;17.50;;;;;;;3.62;74.98;101204.99;1688748;84;21836;-78
2022/03/04 09:51:20;;;;;;;26.93;16.53;;;;;;;3.72;74.85;101196.41;1688509;85;21024;-77
2022/03/04 09:53:50;;;;;;;27.70;16.30;;;;;;;3.75;74.70;101200.73;1688740;85;21217;-78
2022/03/04 09:56:19;;;;;;;26.00;15.80;;;;;;;3.83;74.71;101205.95;1688533;84;21069;-77
2022/03/04 09:58:46;;;;;;;27.90;16.57;;;;;;;3.89;74.67;101200.78;1690415;83;20886;-79
2022/03/04 10:01:16;;;;;;;24.60;15.43;;;;;;;3.94;74.42;101207.72;1698397;83;20990;-78
2022/03/04 10:03:50;;;;;;;23.13;15.33;;;;;;;3.93;74.30;101206.41;1717512;83;21454;-77
2022/03/04 10:06:20;;;;;;;27.20;17.30;;;;;;;3.89;74.00;101205.53;1717491;83;21138;-77
2022/03/04 10:08:50;;;;;;;27.63;17.13;;;;;;;3.88;74.14;101203.81;1703877;83;21008;-78
2022/03/04 10:11:34;;;;;;;24.87;17.10;;;;;;;3.90;74.08;101210.28;1688585;84;20997;-78
2022/03/04 10:14:13;;;;;;;33.93;20.57;;;;;;;3.85;73.76;101214.58;1694858;83;21036;-77
2022/03/04 10:16:42;;;;;;;28.03;18.40;;;;;;;3.76;73.60;101214.98;1688093;83;21163;-75
2022/03/04 10:19:19;;;;;;;27.87;17.67;;;;;;;3.71;73.69;101216.69;1717190;83;21127;-78
2022/03/04 10:22:05;;;;;;;22.73;14.57;;;;;;;3.71;73.83;101222.31;1695137;84;21278;-75
2022/03/04 10:24:41;;;;;;;16.13;11.13;;;;;;;3.71;73.67;101215.83;1710734;83;21449;-76
2022/03/04 10:27:15;;;;;;;20.27;11.83;;;;;;;3.69;73.61;101211.95;1693868;83;21052;-76
2022/03/04 10:29:49;;;;;;;18.50;11.73;;;;;;;3.70;73.65;101211.08;1697857;83;21079;-75
2022/03/04 10:32:26;;;;;;;22.77;14.43;;;;;;;3.70;73.58;101201.14;1688650;85;21196;-74
2022/03/04 10:34:59;;;;;;;17.97;10.27;;;;;;;3.69;73.61;101195.09;1688970;83;21123;-80
2022/03/04 10:37:56;;;;;;;19.23;9.77;;;;;;;3.73;73.51;101200.72;1688834;83;21021;-76
2022/03/04 10:40:32;;;;;;;16.17;9.60;;;;;;;3.73;73.40;101199.42;1688481;85;21013;-74
2022/03/04 10:43:02;;;;;;;8.40;5.80;;;;;;;3.74;73.33;101198.58;1689252;83;21511;-74
2022/03/04 10:45:38;;;;;;;6.50;4.78;;;;;;;3.75;73.25;101204.19;1715108;83;21028;-80
2022/03/04 10:48:14;;;;;;;12.33;7.23;;;;;;;3.78;73.24;101200.31;1688525;85;21005;-81
2022/03/04 10:50:44;;;;;;;10.43;6.20;;;;;;;3.84;73.24;101195.57;1702669;83;20984;-77
2022/03/04 10:53:19;;;;;;;17.00;8.75;;;;;;;3.88;73.08;101194.73;1717371;83;21051;-75
2022/03/04 10:55:49;;;;;;;14.63;9.37;;;;;;;3.94;73.05;101196.48;1717229;83;21459;-75
2022/03/04 10:58:33;;;;;;;17.97;9.03;;;;;;;3.96;72.82;101193.44;1716774;83;21968;-84
2022/03/04 11:01:09;;;;;;;14.77;8.80;;;;;;;3.96;72.73;101194.73;1717254;83;21000;-78
2022/03/04 11:03:38;;;;;;;14.73;9.23;;;;;;;3.96;72.61;101193.03;1717264;83;22150;-76
2022/03/04 11:06:08;;;;;;;20.07;11.10;;;;;;;3.99;72.62;101194.34;1717514;83;21023;-74
2022/03/04 11:08:40;;;;;;;;;;;;;;;4.02;72.55;101193.05;1703676;83;21001;-74
2022/03/04 11:11:07;;;;;;;13.00;9.00;;;;;;;4.05;72.41;101189.59;1686860;85;21848;-75
2022/03/04 11:13:34;;;;;;;13.98;8.33;;;;;;;4.07;72.52;101194.33;1688574;85;25013;-77
2022/03/04 11:16:05;;;;;;;8.30;6.40;;;;;;;4.08;72.36;101192.19;1688814;83;21037;-75
2022/03/04 11:18:34;;;;;;;11.90;7.90;;;;;;;4.10;72.25;101194.37;1688726;85;21274;-76
2022/03/04 11:21:04;;;;;;;14.57;9.70;;;;;;;4.16;72.30;101195.67;1688759;84;21493;-75